createdAt,value
2022-10-11T00:00:45.014Z,2.60
2022-10-11T00:03:14.534Z,2.00
2022-10-11T00:05:43.941Z,2.37
2022-10-11T00:08:12.006Z,2.27
2022-10-11T00:10:41.492Z,2.03
2022-10-11T00:13:09.783Z,1.73
2022-10-11T00:15:40.527Z,2.00
2022-10-11T00:18:08.579Z,1.37
2022-10-11T00:20:36.564Z,1.83
2022-10-11T00:23:04.561Z,2.03
2022-10-11T00:25:32.933Z,3.30
2022-10-11T00:28:02.306Z,2.23
2022-10-11T00:30:30.311Z,3.43
2022-10-11T00:32:58.486Z,2.23
2022-10-11T00:35:26.663Z,1.90
2022-10-11T00:37:57.630Z,1.90
2022-10-11T00:40:25.774Z,1.67
2022-10-11T00:42:53.772Z,2.37
2022-10-11T00:46:00.467Z,1.43
2022-10-11T00:48:33.106Z,2.10
2022-10-11T00:51:04.113Z,2.43
2022-10-11T00:53:33.997Z,2.33
2022-10-11T00:56:07.869Z,1.60
2022-10-11T00:58:37.517Z,2.30
2022-10-11T01:01:07.293Z,1.73
2022-10-11T01:03:37.302Z,2.43
2022-10-11T01:06:09.159Z,1.80
2022-10-11T01:08:39.565Z,2.07
2022-10-11T01:11:10.496Z,1.47
2022-10-11T01:13:48.631Z,1.83
2022-10-11T01:16:26.506Z,1.63
2022-10-11T01:19:06.812Z,1.77
2022-10-11T01:21:45.151Z,1.67
2022-10-11T01:24:38.752Z,2.27
2022-10-11T01:27:43.966Z,2.20
2022-10-11T01:30:31.435Z,1.83
2022-10-11T01:33:11.703Z,2.50
2022-10-11T01:35:42.861Z,1.80
2022-10-11T01:38:17.031Z,2.33
2022-10-11T01:40:51.163Z,2.13
2022-10-11T01:43:21.519Z,1.60
2022-10-11T01:45:52.320Z,2.80
2022-10-11T01:48:21.132Z,1.90
2022-10-11T01:50:51.613Z,2.07
2022-10-11T01:53:46.861Z,1.83
2022-10-11T01:56:25.661Z,1.50
2022-10-11T01:59:11.362Z,3.40
2022-10-11T02:01:51.487Z,1.73
2022-10-11T02:04:28.408Z,2.27
2022-10-11T02:07:02.116Z,1.10
2022-10-11T02:09:37.423Z,1.50
2022-10-11T02:12:11.265Z,1.70
2022-10-11T02:14:42.667Z,1.80
2022-10-11T02:17:16.521Z,1.17
2022-10-11T02:19:48.150Z,1.67
2022-10-11T02:22:20.512Z,1.93
2022-10-11T02:24:52.549Z,1.47
2022-10-11T02:27:24.946Z,1.57
2022-10-11T02:29:55.058Z,1.80
2022-10-11T02:32:26.500Z,1.90
2022-10-11T02:34:57.573Z,1.97
2022-10-11T02:37:32.213Z,1.37
2022-10-11T02:40:06.491Z,1.30
2022-10-11T02:42:38.149Z,1.30
2022-10-11T02:45:11.432Z,1.47
2022-10-11T02:47:42.528Z,1.77
2022-10-11T02:50:12.462Z,1.63
2022-10-11T02:52:40.479Z,1.90
2022-10-11T02:55:09.654Z,1.37
2022-10-11T02:57:37.670Z,1.83
2022-10-11T03:00:06.849Z,1.60
2022-10-11T03:02:34.843Z,1.30
2022-10-11T03:05:04.501Z,1.73
2022-10-11T03:07:32.527Z,1.43
2022-10-11T03:10:00.533Z,1.70
2022-10-11T03:12:28.503Z,1.30
2022-10-11T03:14:56.487Z,1.50
2022-10-11T03:17:36.217Z,2.13
2022-10-11T03:20:08.126Z,1.70
2022-10-11T03:22:36.150Z,2.10
2022-10-11T03:25:04.970Z,1.70
2022-10-11T03:27:33.303Z,1.87
2022-10-11T03:30:01.429Z,1.97
2022-10-11T03:32:30.199Z,3.60
2022-10-11T03:34:58.653Z,1.80
2022-10-11T03:37:28.179Z,1.20
2022-10-11T03:39:56.180Z,1.17
2022-10-11T03:42:24.250Z,1.67
2022-10-11T03:44:52.237Z,1.57
2022-10-11T03:47:20.276Z,1.50
2022-10-11T03:49:48.281Z,2.00
2022-10-11T03:52:16.246Z,2.30
2022-10-11T03:54:45.611Z,2.60
2022-10-11T03:57:13.651Z,2.00
2022-10-11T03:59:41.922Z,1.97
2022-10-11T04:02:10.372Z,3.20
2022-10-11T04:04:38.475Z,1.50
2022-10-11T04:07:06.717Z,1.50
2022-10-11T04:09:34.818Z,2.50
2022-10-11T04:12:04.750Z,1.60
2022-10-11T04:14:32.752Z,1.73
2022-10-11T04:17:00.809Z,2.03
2022-10-11T04:19:29.730Z,1.73
2022-10-11T04:21:57.781Z,1.50
2022-10-11T04:24:25.822Z,1.40
2022-10-11T04:26:53.810Z,2.73
2022-10-11T04:29:23.257Z,1.40
2022-10-11T04:31:51.288Z,1.40
2022-10-11T04:34:19.615Z,1.97
2022-10-11T04:36:49.769Z,1.63
2022-10-11T04:39:18.107Z,1.80
2022-10-11T04:41:46.199Z,1.63
2022-10-11T04:44:14.194Z,1.10
2022-10-11T04:46:43.582Z,2.30
2022-10-11T04:49:11.651Z,1.27
2022-10-11T04:51:39.748Z,1.17
2022-10-11T04:54:07.767Z,1.57
2022-10-11T04:56:35.773Z,1.37
2022-10-11T04:59:03.768Z,1.63
2022-10-11T05:01:31.756Z,1.80
2022-10-11T05:04:01.111Z,1.60
2022-10-11T05:06:29.168Z,2.37
2022-10-11T05:08:57.278Z,2.30
2022-10-11T05:11:25.362Z,2.13
2022-10-11T05:13:53.341Z,2.03
2022-10-11T05:16:21.411Z,2.77
2022-10-11T05:18:49.426Z,2.07
2022-10-11T05:21:20.683Z,1.50
2022-10-11T05:23:50.088Z,1.67
2022-10-11T05:26:18.763Z,3.00
2022-10-11T05:28:47.148Z,1.30
2022-10-11T05:31:15.654Z,1.73
2022-10-11T05:33:43.960Z,1.07
2022-10-11T05:36:12.139Z,1.20
2022-10-11T05:38:41.879Z,1.50
2022-10-11T05:41:10.237Z,1.40
2022-10-11T05:43:38.246Z,1.30
2022-10-11T05:46:07.095Z,1.80
2022-10-11T05:48:35.491Z,1.80
2022-10-11T05:51:05.555Z,1.63
2022-10-11T05:53:34.002Z,2.10
2022-10-11T05:56:03.687Z,1.83
2022-10-11T05:58:31.989Z,2.70
2022-10-11T06:01:00.045Z,2.60
2022-10-11T06:03:28.242Z,2.17
2022-10-11T06:05:57.329Z,2.17
2022-10-11T06:08:25.577Z,1.43
2022-10-11T06:10:53.625Z,1.57
2022-10-11T06:13:22.995Z,2.47
2022-10-11T06:15:50.960Z,1.13
2022-10-11T06:18:18.964Z,1.80
2022-10-11T06:20:47.009Z,1.50
2022-10-11T06:23:15.010Z,1.43
2022-10-11T06:25:43.062Z,2.47
2022-10-11T06:28:11.193Z,3.30
2022-10-11T06:30:41.216Z,1.90
2022-10-11T06:33:09.189Z,1.93
2022-10-11T06:35:37.173Z,2.10
2022-10-11T06:38:05.205Z,1.50
2022-10-11T06:40:33.242Z,1.10
2022-10-11T06:43:01.238Z,0.90
2022-10-11T06:45:29.241Z,1.80
2022-10-11T06:47:58.714Z,3.20
2022-10-11T06:50:54.508Z,2.03
2022-10-11T06:53:14.718Z,1.67
2022-10-11T06:55:42.697Z,1.70
2022-10-11T06:58:10.764Z,2.23
2022-10-11T07:00:38.897Z,1.50
2022-10-11T07:03:09.291Z,1.97
2022-10-11T07:05:37.285Z,1.93
2022-10-11T07:08:05.710Z,2.90
2022-10-11T07:10:33.696Z,1.90
2022-10-11T07:13:01.709Z,1.80
2022-10-11T07:15:29.658Z,2.33
2022-10-11T07:17:57.698Z,2.40
2022-10-11T07:20:27.113Z,2.50
2022-10-11T07:22:55.087Z,1.80
2022-10-11T07:25:23.086Z,2.13
2022-10-11T07:27:51.055Z,2.00
2022-10-11T07:30:19.160Z,2.87
2022-10-11T07:32:47.139Z,2.30
2022-10-11T07:35:15.279Z,2.47
2022-10-11T07:37:44.666Z,2.70
2022-10-11T07:40:12.636Z,3.20
2022-10-11T07:42:40.638Z,2.73
2022-10-11T07:45:09.250Z,2.57
2022-10-11T07:47:37.842Z,2.57
2022-10-11T07:50:06.629Z,2.77
2022-10-11T07:52:36.370Z,2.33
2022-10-11T07:55:06.574Z,2.80
2022-10-11T07:57:34.653Z,2.63
2022-10-11T08:00:02.805Z,3.20
2022-10-11T08:02:39.998Z,2.67
2022-10-11T08:05:08.870Z,2.87
2022-10-11T08:07:37.684Z,3.27
2022-10-11T08:10:09.058Z,2.40
2022-10-11T08:12:37.087Z,2.40
2022-10-11T08:15:05.675Z,2.20
2022-10-11T08:17:33.647Z,3.73
2022-10-11T08:20:01.704Z,2.87
2022-10-11T08:22:30.436Z,3.50
2022-10-11T08:24:58.461Z,2.70
2022-10-11T08:27:27.910Z,2.70
2022-10-11T08:29:55.907Z,2.10
2022-10-11T08:32:23.864Z,3.37
2022-10-11T08:34:51.846Z,3.17
2022-10-11T08:37:19.875Z,2.50
2022-10-11T08:39:47.874Z,3.00
2022-10-11T08:42:24.523Z,2.67
2022-10-11T08:45:10.531Z,2.00
2022-10-11T08:47:41.754Z,3.20
2022-10-11T08:50:19.700Z,2.93
2022-10-11T08:52:51.242Z,2.80
2022-10-11T08:55:25.445Z,2.43
2022-10-11T08:57:56.345Z,2.00
2022-10-11T09:00:28.283Z,2.73
2022-10-11T09:03:09.266Z,3.27
2022-10-11T09:05:44.291Z,2.53
2022-10-11T09:08:22.524Z,2.80
2022-10-11T09:10:59.575Z,2.10
2022-10-11T09:13:43.812Z,2.30
2022-10-11T09:16:23.399Z,2.03
2022-10-11T09:19:13.066Z,2.23
2022-10-11T09:21:48.897Z,2.30
2022-10-11T09:24:31.202Z,2.70
2022-10-11T09:27:02.109Z,2.40
2022-10-11T09:29:45.911Z,2.97
2022-10-11T09:32:17.666Z,2.70
2022-10-11T09:34:45.678Z,2.50
2022-10-11T09:37:22.095Z,2.80
2022-10-11T09:39:55.412Z,2.13
2022-10-11T09:42:23.571Z,2.77
2022-10-11T09:44:52.949Z,3.30
2022-10-11T09:47:25.706Z,2.47
2022-10-11T09:49:58.762Z,2.50
2022-10-11T09:52:27.542Z,2.10
2022-10-11T09:54:57.079Z,1.90
2022-10-11T09:57:26.910Z,2.13
2022-10-11T10:00:04.785Z,2.37
2022-10-11T10:02:46.836Z,2.20
2022-10-11T10:05:18.984Z,2.33
2022-10-11T10:08:08.068Z,2.10
2022-10-11T10:10:42.246Z,1.97
2022-10-11T10:13:22.697Z,1.33
2022-10-11T10:15:53.510Z,1.97
2022-10-11T10:18:25.697Z,1.80
2022-10-11T10:20:55.760Z,1.80
2022-10-11T10:23:27.106Z,1.97
2022-10-11T10:26:12.464Z,1.83
2022-10-11T10:28:54.624Z,1.57
2022-10-11T10:31:24.195Z,2.03
2022-10-11T10:33:55.406Z,2.20
2022-10-11T10:36:29.631Z,2.43
2022-10-11T10:39:01.131Z,2.57
2022-10-11T10:41:29.126Z,2.40
2022-10-11T10:44:00.312Z,3.10
2022-10-11T10:46:40.275Z,2.40
2022-10-11T10:52:23.014Z,3.20
2022-10-11T10:55:00.476Z,2.80
2022-10-11T10:57:37.361Z,2.63
2022-10-11T11:00:14.084Z,3.30
2022-10-11T11:02:50.953Z,3.80
2022-10-11T11:05:27.735Z,2.93
2022-10-11T11:08:03.620Z,3.23
2022-10-11T11:10:37.619Z,3.00
2022-10-11T11:13:19.258Z,3.13
2022-10-11T11:15:55.013Z,3.10
2022-10-11T11:18:30.351Z,3.17
2022-10-11T11:21:14.151Z,2.90
2022-10-11T11:23:50.430Z,2.80
2022-10-11T11:26:26.547Z,4.00
2022-10-11T11:29:18.152Z,3.27
2022-10-11T11:32:00.163Z,2.40
2022-10-11T11:34:32.963Z,2.87
2022-10-11T11:37:06.575Z,3.13
2022-10-11T11:39:38.798Z,3.23
2022-10-11T11:42:10.627Z,2.87
2022-10-11T11:44:41.301Z,2.40
2022-10-11T11:47:17.780Z,2.07
2022-10-11T11:49:50.319Z,2.43
2022-10-11T11:52:27.798Z,2.43
2022-10-11T11:55:04.281Z,1.83
2022-10-11T11:57:42.801Z,1.67
2022-10-11T12:00:18.388Z,2.70
2022-10-11T12:02:52.998Z,1.80
2022-10-11T12:05:24.259Z,2.03
2022-10-11T12:07:59.514Z,2.20
2022-10-11T12:10:35.218Z,2.70
2022-10-11T12:13:16.798Z,2.13
2022-10-11T12:15:58.819Z,2.40
2022-10-11T12:18:27.709Z,2.07
2022-10-11T12:21:05.764Z,1.50
2022-10-11T12:23:52.327Z,2.13
2022-10-11T12:26:42.169Z,2.20
2022-10-11T12:29:43.151Z,1.50
2022-10-11T12:32:53.219Z,2.60
2022-10-11T12:35:42.605Z,1.73
2022-10-11T12:38:20.769Z,2.03
2022-10-11T12:40:51.830Z,1.90
2022-10-11T12:43:32.973Z,2.10
2022-10-11T12:46:39.260Z,2.50
2022-10-11T12:49:23.396Z,2.10
2022-10-11T12:51:59.506Z,2.57
2022-10-11T12:54:56.101Z,1.83
2022-10-11T12:57:47.130Z,2.43
2022-10-11T13:00:21.656Z,2.73
2022-10-11T13:02:50.429Z,2.10
2022-10-11T13:05:24.358Z,2.90
2022-10-11T13:07:53.355Z,2.70
2022-10-11T13:10:27.028Z,1.93
2022-10-11T13:12:59.583Z,1.90
2022-10-11T13:15:27.940Z,1.93
2022-10-11T13:18:00.906Z,2.30
2022-10-11T13:20:32.492Z,2.80
2022-10-11T13:23:00.569Z,2.50
2022-10-11T13:25:30.413Z,1.73
2022-10-11T13:28:00.275Z,1.67
2022-10-11T13:30:30.265Z,2.43
2022-10-11T13:32:59.966Z,2.10
2022-10-11T13:35:32.308Z,2.13
2022-10-11T13:38:01.171Z,2.20
2022-10-11T13:40:30.705Z,1.90
2022-10-11T13:43:00.645Z,1.63
2022-10-11T13:45:30.571Z,2.27
2022-10-11T13:47:59.054Z,1.60
2022-10-11T13:50:32.268Z,1.97
2022-10-11T13:53:02.247Z,1.93
2022-10-11T13:55:33.469Z,1.80
2022-10-11T13:58:04.547Z,1.73
2022-10-11T14:00:34.471Z,1.93
2022-10-11T14:03:06.219Z,1.60
2022-10-11T14:05:37.635Z,1.93
2022-10-11T14:08:08.606Z,1.60
2022-10-11T14:10:36.703Z,1.40
2022-10-11T14:13:08.993Z,1.50
2022-10-11T14:15:38.974Z,1.17
2022-10-11T14:18:48.832Z,1.77
2022-10-11T14:21:31.368Z,1.37
2022-10-11T14:24:01.134Z,1.83
2022-10-11T14:26:33.877Z,1.30
2022-10-11T14:29:06.721Z,1.73
2022-10-11T14:31:41.750Z,1.80
2022-10-11T14:34:17.266Z,2.07
2022-10-11T14:36:45.403Z,2.40
2022-10-11T14:39:17.563Z,1.30
2022-10-11T14:41:45.903Z,1.60
2022-10-11T14:44:16.718Z,1.70
2022-10-11T14:46:45.918Z,1.60
2022-10-11T14:49:15.693Z,1.77
2022-10-11T14:51:44.984Z,1.87
2022-10-11T14:54:14.061Z,1.37
2022-10-11T14:56:42.126Z,1.20
2022-10-11T14:59:13.558Z,2.03
2022-10-11T15:01:43.103Z,1.93
2022-10-11T15:04:11.175Z,1.13
2022-10-11T15:06:41.562Z,1.77
2022-10-11T15:09:09.712Z,1.37
2022-10-11T15:11:39.050Z,1.80
2022-10-11T15:14:07.622Z,2.03
2022-10-11T15:16:36.506Z,1.40
2022-10-11T15:19:05.870Z,1.90
2022-10-11T15:21:35.258Z,2.77
2022-10-11T15:24:03.272Z,1.70
2022-10-11T15:26:31.377Z,1.67
2022-10-11T15:28:59.622Z,1.37
2022-10-11T15:31:27.765Z,1.80
2022-10-11T15:33:59.348Z,1.50
2022-10-11T15:36:29.533Z,2.20
2022-10-11T15:38:57.736Z,1.60
2022-10-11T15:41:25.801Z,1.57
2022-10-11T15:43:54.604Z,1.70
2022-10-11T15:46:23.722Z,1.50
2022-10-11T15:48:52.619Z,1.50
2022-10-11T15:51:20.613Z,1.43
2022-10-11T15:53:50.006Z,1.73
2022-10-11T15:56:19.644Z,1.80
2022-10-11T15:58:47.799Z,1.80
2022-10-11T16:01:17.721Z,1.67
2022-10-11T16:03:46.429Z,1.60
2022-10-11T16:06:14.547Z,1.97
2022-10-11T16:08:42.847Z,1.87
2022-10-11T16:11:13.281Z,2.63
2022-10-11T16:13:41.452Z,2.00
2022-10-11T16:16:10.545Z,2.03
2022-10-11T16:18:39.162Z,1.83
2022-10-11T16:21:09.027Z,1.93
2022-10-11T16:23:37.582Z,1.73
2022-10-11T16:26:08.929Z,2.30
2022-10-11T16:28:39.267Z,2.03
2022-10-11T16:31:09.039Z,1.60
2022-10-11T16:33:45.406Z,1.73
2022-10-11T16:36:35.863Z,1.73
2022-10-11T16:39:07.919Z,1.87
2022-10-11T16:41:35.946Z,2.27
2022-10-11T16:44:05.866Z,1.83
2022-10-11T16:46:35.252Z,2.13
2022-10-11T16:49:03.487Z,2.43
2022-10-11T16:51:31.536Z,2.17
2022-10-11T16:53:59.583Z,1.93
2022-10-11T16:56:27.592Z,2.30
2022-10-11T16:58:56.193Z,1.60
2022-10-11T17:01:26.184Z,1.70
2022-10-11T17:03:55.629Z,2.20
2022-10-11T17:06:24.046Z,2.37
2022-10-11T17:08:52.124Z,2.60
2022-10-11T17:11:22.180Z,1.73
2022-10-11T17:13:53.244Z,2.20
2022-10-11T17:16:22.183Z,1.93
2022-10-11T17:18:51.834Z,1.90
2022-10-11T17:21:22.476Z,3.13
2022-10-11T17:23:50.485Z,3.13
2022-10-11T17:26:20.723Z,3.13
2022-10-11T17:28:49.135Z,2.30
2022-10-11T17:31:18.070Z,2.93
2022-10-11T17:33:46.111Z,2.77
2022-10-11T17:36:20.624Z,2.40
2022-10-11T17:38:49.622Z,2.50
2022-10-11T17:41:18.086Z,3.20
2022-10-11T17:43:46.166Z,2.90
2022-10-11T17:46:15.587Z,2.17
2022-10-11T17:48:44.678Z,4.87
2022-10-11T17:51:15.679Z,4.03
2022-10-11T17:53:45.057Z,3.40
2022-10-11T17:56:15.604Z,4.67
2022-10-11T17:58:44.072Z,4.27
2022-10-11T18:01:16.447Z,5.33
2022-10-11T18:03:45.701Z,5.20
2022-10-11T18:06:15.948Z,4.40
2022-10-11T18:08:43.963Z,4.40
2022-10-11T18:11:13.775Z,4.33
2022-10-11T18:13:42.591Z,3.73
2022-10-11T18:16:11.483Z,3.13
2022-10-11T18:18:40.479Z,3.67
2022-10-11T18:21:08.510Z,3.00
2022-10-11T18:23:38.385Z,3.33
2022-10-11T18:26:10.853Z,4.00
2022-10-11T18:28:39.193Z,2.23
2022-10-11T18:31:12.562Z,2.80
2022-10-11T18:33:42.084Z,2.73
2022-10-11T18:36:13.251Z,2.97
2022-10-11T18:38:46.343Z,3.10
2022-10-11T18:41:16.197Z,3.10
2022-10-11T18:43:44.643Z,3.00
2022-10-11T18:46:14.767Z,2.10
2022-10-11T18:48:43.550Z,2.63
2022-10-11T18:51:14.893Z,3.70
2022-10-11T18:53:44.344Z,3.03
2022-10-11T18:56:13.949Z,3.53
2022-10-11T18:58:44.994Z,2.90
2022-10-11T19:01:15.884Z,3.40
2022-10-11T19:03:44.731Z,4.00
2022-10-11T19:06:17.129Z,5.23
2022-10-11T19:08:47.533Z,4.90
2022-10-11T19:11:17.301Z,3.27
2022-10-11T19:13:45.761Z,3.90
2022-10-11T19:16:15.977Z,4.27
2022-10-11T19:18:45.194Z,4.67
2022-10-11T19:21:14.504Z,6.17
2022-10-11T19:23:44.545Z,6.43
2022-10-11T19:26:16.022Z,4.90
2022-10-11T19:28:44.722Z,3.90
2022-10-11T19:31:16.794Z,4.40
2022-10-11T19:33:47.894Z,4.13
2022-10-11T19:36:16.125Z,4.67
2022-10-11T19:38:46.125Z,3.67
2022-10-11T19:41:17.226Z,4.40
2022-10-11T19:43:45.319Z,4.00
2022-10-11T19:46:20.289Z,3.73
2022-10-11T19:48:56.050Z,3.33
2022-10-11T19:51:26.120Z,3.70
2022-10-11T19:53:57.399Z,2.70
2022-10-11T19:56:27.800Z,3.50
2022-10-11T19:58:56.179Z,3.10
2022-10-11T20:01:26.514Z,3.50
2022-10-11T20:03:56.261Z,3.67
2022-10-11T20:06:24.982Z,3.40
2022-10-11T20:09:16.570Z,2.93
2022-10-11T20:11:43.503Z,2.80
2022-10-11T20:14:11.530Z,2.87
2022-10-11T20:16:41.368Z,5.63
2022-10-11T20:19:09.405Z,4.10
2022-10-11T20:21:37.423Z,3.10
2022-10-11T20:24:08.396Z,3.37
2022-10-11T20:26:36.489Z,3.13
2022-10-11T20:29:05.894Z,3.47
2022-10-11T20:31:37.941Z,4.10
2022-10-11T20:34:07.329Z,3.20
2022-10-11T20:36:36.624Z,2.30
2022-10-11T20:39:06.373Z,3.50
2022-10-11T20:41:39.674Z,4.57
2022-10-11T20:44:09.621Z,3.13
2022-10-11T20:46:40.149Z,3.37
2022-10-11T20:49:10.336Z,3.90
2022-10-11T20:51:39.937Z,3.07
2022-10-11T20:54:08.153Z,3.83
2022-10-11T20:56:36.505Z,3.50
2022-10-11T20:59:05.058Z,3.27
2022-10-11T21:01:37.027Z,2.33
2022-10-11T21:04:06.425Z,3.57
2022-10-11T21:06:35.088Z,4.00
2022-10-11T21:09:03.475Z,2.83
2022-10-11T21:11:33.746Z,2.30
2022-10-11T21:14:03.268Z,3.20
2022-10-11T21:16:31.971Z,2.70
2022-10-11T21:19:02.898Z,3.40
2022-10-11T21:21:31.438Z,3.03
2022-10-11T21:24:01.181Z,2.97
2022-10-11T21:26:30.435Z,2.80
2022-10-11T21:29:00.235Z,3.97
2022-10-11T21:31:32.952Z,2.83
2022-10-11T21:34:04.969Z,3.60
2022-10-11T21:36:32.982Z,4.00
2022-10-11T21:39:00.958Z,4.07
2022-10-11T21:41:30.440Z,3.77
2022-10-11T21:43:58.946Z,3.23
2022-10-11T21:46:54.170Z,3.97
2022-10-11T21:49:18.169Z,3.50
2022-10-11T21:51:46.326Z,3.80
2022-10-11T21:54:14.425Z,4.00
2022-10-11T21:56:42.635Z,3.10
2022-10-11T21:59:12.448Z,3.80
2022-10-11T22:01:41.222Z,3.23
2022-10-11T22:04:10.878Z,3.20
2022-10-11T22:06:40.322Z,3.27
2022-10-11T22:09:09.385Z,3.50
2022-10-11T22:11:37.791Z,4.03
2022-10-11T22:14:06.111Z,3.60
2022-10-11T22:16:35.118Z,3.80
2022-10-11T22:19:03.264Z,3.80
2022-10-11T22:21:31.265Z,3.10
2022-10-11T22:24:00.632Z,3.00
2022-10-11T22:26:31.087Z,3.17
2022-10-11T22:28:59.694Z,3.27
2022-10-11T22:31:28.168Z,2.87
2022-10-11T22:33:56.525Z,2.63
2022-10-11T22:36:25.295Z,2.73
2022-10-11T22:38:54.330Z,3.40
2022-10-11T22:41:24.406Z,2.40
2022-10-11T22:43:52.655Z,2.47
2022-10-11T22:46:20.663Z,2.80
2022-10-11T22:48:48.686Z,2.63
2022-10-11T22:51:16.773Z,2.53
2022-10-11T22:53:44.854Z,2.97
2022-10-11T22:56:12.966Z,2.70
2022-10-11T22:58:42.343Z,2.77
2022-10-11T23:01:11.594Z,2.10
2022-10-11T23:03:39.890Z,3.20
2022-10-11T23:06:08.128Z,2.70
2022-10-11T23:08:36.120Z,2.70
2022-10-11T23:11:05.604Z,3.10
2022-10-11T23:13:33.710Z,3.00
2022-10-11T23:16:06.592Z,1.67
2022-10-11T23:18:34.653Z,2.20
2022-10-11T23:21:02.727Z,2.07
2022-10-11T23:23:30.886Z,2.20
2022-10-11T23:26:03.139Z,3.30
2022-10-11T23:28:31.220Z,2.90
2022-10-11T23:30:59.265Z,2.03
2022-10-11T23:33:28.728Z,2.40
2022-10-11T23:35:56.760Z,2.80
2022-10-11T23:38:24.746Z,2.30
2022-10-11T23:40:52.715Z,2.17
2022-10-11T23:43:20.717Z,2.40
2022-10-11T23:45:48.762Z,3.00
2022-10-11T23:48:17.834Z,3.20
2022-10-11T23:50:47.243Z,2.50
2022-10-11T23:53:16.982Z,3.80
2022-10-11T23:55:44.961Z,2.70
2022-10-11T23:58:13.086Z,2.70
